sensor_id;sensor_type;location;lat;lon;timestamp;P1;durP1;ratioP1;P2;durP2;ratioP2
18449;SDS011;9354;50.194;7.690;2023-05-10T00:00:17;1.03;;;0.40;;
18449;SDS011;9354;50.194;7.690;2023-05-10T00:02:47;0.40;;;0.23;;
18449;SDS011;9354;50.194;7.690;2023-05-10T00:05:14;0.53;;;0.50;;
18449;SDS011;9354;50.194;7.690;2023-05-10T00:07:42;0.60;;;0.30;;
18449;SDS011;9354;50.194;7.690;2023-05-10T00:10:10;3.70;;;0.20;;
18449;SDS011;9354;50.194;7.690;2023-05-10T00:12:38;6.60;;;0.40;;
18449;SDS011;9354;50.194;7.690;2023-05-10T00:15:06;0.30;;;0.30;;
18449;SDS011;9354;50.194;7.690;2023-05-10T00:17:34;0.70;;;0.50;;
18449;SDS011;9354;50.194;7.690;2023-05-10T00:20:03;0.40;;;0.30;;
18449;SDS011;9354;50.194;7.690;2023-05-10T00:22:31;0.23;;;0.23;;
18449;SDS011;9354;50.194;7.690;2023-05-10T00:24:59;0.47;;;0.40;;
18449;SDS011;9354;50.194;7.690;2023-05-10T00:27:26;0.53;;;0.30;;
18449;SDS011;9354;50.194;7.690;2023-05-10T00:29:54;0.40;;;0.20;;
18449;SDS011;9354;50.194;7.690;2023-05-10T00:32:21;0.50;;;0.40;;
18449;SDS011;9354;50.194;7.690;2023-05-10T00:34:48;0.50;;;0.40;;
18449;SDS011;9354;50.194;7.690;2023-05-10T00:37:17;0.57;;;0.30;;
18449;SDS011;9354;50.194;7.690;2023-05-10T00:39:45;1.70;;;0.30;;
18449;SDS011;9354;50.194;7.690;2023-05-10T00:42:12;1.90;;;0.60;;
18449;SDS011;9354;50.194;7.690;2023-05-10T00:44:39;0.37;;;0.37;;
18449;SDS011;9354;50.194;7.690;2023-05-10T00:47:07;0.40;;;0.30;;
18449;SDS011;9354;50.194;7.690;2023-05-10T00:49:35;0.30;;;0.30;;
18449;SDS011;9354;50.194;7.690;2023-05-10T00:52:03;0.70;;;0.47;;
18449;SDS011;9354;50.194;7.690;2023-05-10T00:54:32;0.80;;;0.50;;
18449;SDS011;9354;50.194;7.690;2023-05-10T00:56:59;0.40;;;0.40;;
18449;SDS011;9354;50.194;7.690;2023-05-10T00:59:26;1.23;;;0.47;;
18449;SDS011;9354;50.194;7.690;2023-05-10T01:01:55;0.90;;;0.40;;
18449;SDS011;9354;50.194;7.690;2023-05-10T01:04:22;0.40;;;0.40;;
18449;SDS011;9354;50.194;7.690;2023-05-10T01:06:51;0.43;;;0.30;;
18449;SDS011;9354;50.194;7.690;2023-05-10T01:09:18;0.80;;;0.60;;
18449;SDS011;9354;50.194;7.690;2023-05-10T01:11:47;1.10;;;0.40;;
18449;SDS011;9354;50.194;7.690;2023-05-10T01:14:16;2.10;;;0.70;;
18449;SDS011;9354;50.194;7.690;2023-05-10T01:16:46;2.67;;;0.50;;
18449;SDS011;9354;50.194;7.690;2023-05-10T01:19:17;2.03;;;0.80;;
18449;SDS011;9354;50.194;7.690;2023-05-10T01:21:49;0.67;;;0.60;;
18449;SDS011;9354;50.194;7.690;2023-05-10T01:24:39;1.30;;;0.73;;
18449;SDS011;9354;50.194;7.690;2023-05-10T01:30:45;0.63;;;0.50;;
18449;SDS011;9354;50.194;7.690;2023-05-10T01:33:27;2.53;;;0.60;;
18449;SDS011;9354;50.194;7.690;2023-05-10T01:36:01;1.07;;;0.73;;
18449;SDS011;9354;50.194;7.690;2023-05-10T01:38:38;0.67;;;0.50;;
18449;SDS011;9354;50.194;7.690;2023-05-10T01:41:12;1.77;;;0.63;;
18449;SDS011;9354;50.194;7.690;2023-05-10T01:43:46;1.07;;;0.77;;
18449;SDS011;9354;50.194;7.690;2023-05-10T01:46:27;1.10;;;0.70;;
18449;SDS011;9354;50.194;7.690;2023-05-10T01:49:06;3.27;;;0.90;;
18449;SDS011;9354;50.194;7.690;2023-05-10T01:51:38;0.70;;;0.70;;
18449;SDS011;9354;50.194;7.690;2023-05-10T01:54:11;1.57;;;1.00;;
18449;SDS011;9354;50.194;7.690;2023-05-10T01:56:40;1.23;;;0.80;;
18449;SDS011;9354;50.194;7.690;2023-05-10T01:59:11;1.50;;;0.80;;
18449;SDS011;9354;50.194;7.690;2023-05-10T02:01:41;2.70;;;1.00;;
18449;SDS011;9354;50.194;7.690;2023-05-10T02:04:13;3.40;;;1.07;;
18449;SDS011;9354;50.194;7.690;2023-05-10T02:06:44;5.73;;;0.90;;
18449;SDS011;9354;50.194;7.690;2023-05-10T02:09:13;2.27;;;1.20;;
18449;SDS011;9354;50.194;7.690;2023-05-10T02:11:42;1.17;;;1.00;;
18449;SDS011;9354;50.194;7.690;2023-05-10T02:14:10;2.00;;;1.20;;
18449;SDS011;9354;50.194;7.690;2023-05-10T02:16:39;1.20;;;1.10;;
18449;SDS011;9354;50.194;7.690;2023-05-10T02:19:07;1.63;;;1.20;;
18449;SDS011;9354;50.194;7.690;2023-05-10T02:21:38;1.77;;;1.30;;
18449;SDS011;9354;50.194;7.690;2023-05-10T02:24:06;4.77;;;0.90;;
18449;SDS011;9354;50.194;7.690;2023-05-10T02:26:36;1.60;;;1.30;;
18449;SDS011;9354;50.194;7.690;2023-05-10T02:29:06;2.07;;;1.40;;
18449;SDS011;9354;50.194;7.690;2023-05-10T02:31:34;1.17;;;0.93;;
18449;SDS011;9354;50.194;7.690;2023-05-10T02:34:04;2.23;;;1.30;;
18449;SDS011;9354;50.194;7.690;2023-05-10T02:36:34;1.60;;;1.13;;
18449;SDS011;9354;50.194;7.690;2023-05-10T02:39:04;3.03;;;1.13;;
18449;SDS011;9354;50.194;7.690;2023-05-10T02:41:35;6.40;;;1.13;;
18449;SDS011;9354;50.194;7.690;2023-05-10T02:44:04;1.47;;;1.00;;
18449;SDS011;9354;50.194;7.690;2023-05-10T02:46:33;0.80;;;0.80;;
18449;SDS011;9354;50.194;7.690;2023-05-10T02:49:01;2.80;;;1.13;;
18449;SDS011;9354;50.194;7.690;2023-05-10T02:51:30;4.60;;;1.23;;
18449;SDS011;9354;50.194;7.690;2023-05-10T02:54:00;3.17;;;1.20;;
18449;SDS011;9354;50.194;7.690;2023-05-10T02:56:35;1.73;;;1.40;;
18449;SDS011;9354;50.194;7.690;2023-05-10T02:59:06;2.90;;;1.50;;
18449;SDS011;9354;50.194;7.690;2023-05-10T03:01:33;3.13;;;1.60;;
18449;SDS011;9354;50.194;7.690;2023-05-10T03:04:01;4.20;;;1.47;;
18449;SDS011;9354;50.194;7.690;2023-05-10T03:06:28;2.47;;;1.50;;
18449;SDS011;9354;50.194;7.690;2023-05-10T03:08:56;3.30;;;1.70;;
18449;SDS011;9354;50.194;7.690;2023-05-10T03:11:28;1.87;;;1.50;;
18449;SDS011;9354;50.194;7.690;2023-05-10T03:14:08;3.03;;;1.77;;
18449;SDS011;9354;50.194;7.690;2023-05-10T03:16:44;2.53;;;1.90;;
18449;SDS011;9354;50.194;7.690;2023-05-10T03:19:15;3.90;;;1.67;;
18449;SDS011;9354;50.194;7.690;2023-05-10T03:21:49;5.13;;;2.10;;
18449;SDS011;9354;50.194;7.690;2023-05-10T03:24:20;4.43;;;1.70;;
18449;SDS011;9354;50.194;7.690;2023-05-10T03:26:51;4.97;;;2.10;;
18449;SDS011;9354;50.194;7.690;2023-05-10T03:29:22;3.63;;;2.10;;
18449;SDS011;9354;50.194;7.690;2023-05-10T03:31:52;3.60;;;2.30;;
18449;SDS011;9354;50.194;7.690;2023-05-10T03:34:23;3.97;;;2.20;;
18449;SDS011;9354;50.194;7.690;2023-05-10T03:36:50;3.07;;;2.20;;
18449;SDS011;9354;50.194;7.690;2023-05-10T03:39:17;2.67;;;2.10;;
18449;SDS011;9354;50.194;7.690;2023-05-10T03:41:46;6.60;;;2.30;;
18449;SDS011;9354;50.194;7.690;2023-05-10T03:44:15;4.33;;;2.13;;
18449;SDS011;9354;50.194;7.690;2023-05-10T03:46:43;4.03;;;2.07;;
18449;SDS011;9354;50.194;7.690;2023-05-10T03:49:11;5.13;;;2.20;;
18449;SDS011;9354;50.194;7.690;2023-05-10T03:51:38;4.30;;;2.00;;
18449;SDS011;9354;50.194;7.690;2023-05-10T03:54:06;6.13;;;1.90;;
18449;SDS011;9354;50.194;7.690;2023-05-10T03:56:33;3.40;;;1.90;;
18449;SDS011;9354;50.194;7.690;2023-05-10T03:59:00;4.20;;;1.87;;
18449;SDS011;9354;50.194;7.690;2023-05-10T04:01:34;2.80;;;1.73;;
18449;SDS011;9354;50.194;7.690;2023-05-10T04:04:01;2.67;;;1.57;;
18449;SDS011;9354;50.194;7.690;2023-05-10T04:06:29;9.07;;;1.73;;
18449;SDS011;9354;50.194;7.690;2023-05-10T04:08:57;3.47;;;1.80;;
18449;SDS011;9354;50.194;7.690;2023-05-10T04:11:29;2.77;;;1.80;;
18449;SDS011;9354;50.194;7.690;2023-05-10T04:13:57;3.87;;;1.60;;
18449;SDS011;9354;50.194;7.690;2023-05-10T04:16:24;8.57;;;2.10;;
18449;SDS011;9354;50.194;7.690;2023-05-10T04:18:53;3.37;;;1.63;;
18449;SDS011;9354;50.194;7.690;2023-05-10T04:21:20;2.87;;;1.73;;
18449;SDS011;9354;50.194;7.690;2023-05-10T04:23:47;4.80;;;1.93;;
18449;SDS011;9354;50.194;7.690;2023-05-10T04:26:15;3.57;;;1.87;;
18449;SDS011;9354;50.194;7.690;2023-05-10T04:28:42;4.43;;;2.00;;
18449;SDS011;9354;50.194;7.690;2023-05-10T04:31:10;2.83;;;1.80;;
18449;SDS011;9354;50.194;7.690;2023-05-10T04:33:38;3.13;;;2.17;;
18449;SDS011;9354;50.194;7.690;2023-05-10T04:36:07;2.13;;;1.53;;
18449;SDS011;9354;50.194;7.690;2023-05-10T04:38:35;5.53;;;2.20;;
18449;SDS011;9354;50.194;7.690;2023-05-10T04:41:05;3.63;;;2.20;;
18449;SDS011;9354;50.194;7.690;2023-05-10T04:43:34;5.67;;;2.03;;
18449;SDS011;9354;50.194;7.690;2023-05-10T04:46:02;3.00;;;2.03;;
18449;SDS011;9354;50.194;7.690;2023-05-10T04:48:29;4.17;;;2.20;;
18449;SDS011;9354;50.194;7.690;2023-05-10T04:50:57;7.77;;;2.00;;
18449;SDS011;9354;50.194;7.690;2023-05-10T04:53:26;4.63;;;2.03;;
18449;SDS011;9354;50.194;7.690;2023-05-10T04:55:53;5.33;;;1.93;;
18449;SDS011;9354;50.194;7.690;2023-05-10T04:58:20;2.73;;;2.00;;
18449;SDS011;9354;50.194;7.690;2023-05-10T05:00:48;5.60;;;1.97;;
18449;SDS011;9354;50.194;7.690;2023-05-10T05:03:15;4.10;;;1.80;;
18449;SDS011;9354;50.194;7.690;2023-05-10T05:05:43;4.77;;;2.00;;
18449;SDS011;9354;50.194;7.690;2023-05-10T05:08:10;2.60;;;1.60;;
18449;SDS011;9354;50.194;7.690;2023-05-10T05:10:39;2.53;;;1.60;;
18449;SDS011;9354;50.194;7.690;2023-05-10T05:13:07;2.57;;;1.40;;
18449;SDS011;9354;50.194;7.690;2023-05-10T05:15:34;3.83;;;1.40;;
18449;SDS011;9354;50.194;7.690;2023-05-10T05:18:02;3.43;;;1.40;;
18449;SDS011;9354;50.194;7.690;2023-05-10T05:20:31;3.93;;;1.90;;
18449;SDS011;9354;50.194;7.690;2023-05-10T05:22:59;5.87;;;1.67;;
18449;SDS011;9354;50.194;7.690;2023-05-10T05:25:26;5.23;;;2.50;;
18449;SDS011;9354;50.194;7.690;2023-05-10T05:27:55;3.30;;;1.50;;
18449;SDS011;9354;50.194;7.690;2023-05-10T05:30:22;2.83;;;1.80;;
18449;SDS011;9354;50.194;7.690;2023-05-10T05:32:50;2.27;;;1.63;;
18449;SDS011;9354;50.194;7.690;2023-05-10T05:35:18;6.47;;;1.63;;
18449;SDS011;9354;50.194;7.690;2023-05-10T05:37:45;3.07;;;1.53;;
18449;SDS011;9354;50.194;7.690;2023-05-10T05:40:13;3.07;;;1.40;;
18449;SDS011;9354;50.194;7.690;2023-05-10T05:42:40;3.07;;;1.63;;
18449;SDS011;9354;50.194;7.690;2023-05-10T05:45:09;2.70;;;1.60;;
18449;SDS011;9354;50.194;7.690;2023-05-10T05:47:38;3.80;;;1.87;;
18449;SDS011;9354;50.194;7.690;2023-05-10T05:50:06;4.37;;;2.47;;
18449;SDS011;9354;50.194;7.690;2023-05-10T05:52:33;3.23;;;1.50;;
18449;SDS011;9354;50.194;7.690;2023-05-10T05:55:01;8.37;;;2.00;;
18449;SDS011;9354;50.194;7.690;2023-05-10T05:57:29;3.17;;;1.60;;
18449;SDS011;9354;50.194;7.690;2023-05-10T05:59:56;8.57;;;2.93;;
18449;SDS011;9354;50.194;7.690;2023-05-10T06:02:26;6.93;;;1.97;;
18449;SDS011;9354;50.194;7.690;2023-05-10T06:04:53;5.17;;;1.80;;
18449;SDS011;9354;50.194;7.690;2023-05-10T06:07:20;10.33;;;2.10;;
18449;SDS011;9354;50.194;7.690;2023-05-10T06:09:48;7.17;;;2.00;;
18449;SDS011;9354;50.194;7.690;2023-05-10T06:12:15;3.83;;;1.70;;
18449;SDS011;9354;50.194;7.690;2023-05-10T06:14:43;4.97;;;2.20;;
18449;SDS011;9354;50.194;7.690;2023-05-10T06:17:10;5.27;;;1.97;;
18449;SDS011;9354;50.194;7.690;2023-05-10T06:19:39;6.00;;;2.03;;
18449;SDS011;9354;50.194;7.690;2023-05-10T06:22:06;3.23;;;2.00;;
18449;SDS011;9354;50.194;7.690;2023-05-10T06:24:34;6.70;;;2.17;;
18449;SDS011;9354;50.194;7.690;2023-05-10T06:27:01;5.03;;;1.80;;
18449;SDS011;9354;50.194;7.690;2023-05-10T06:29:29;5.90;;;2.53;;
18449;SDS011;9354;50.194;7.690;2023-05-10T06:31:56;2.73;;;1.73;;
18449;SDS011;9354;50.194;7.690;2023-05-10T06:34:24;11.47;;;2.77;;
18449;SDS011;9354;50.194;7.690;2023-05-10T06:36:53;11.47;;;2.60;;
18449;SDS011;9354;50.194;7.690;2023-05-10T06:39:20;7.13;;;2.17;;
18449;SDS011;9354;50.194;7.690;2023-05-10T06:41:47;6.40;;;1.93;;
18449;SDS011;9354;50.194;7.690;2023-05-10T06:44:15;6.87;;;1.97;;
18449;SDS011;9354;50.194;7.690;2023-05-10T06:46:42;4.80;;;1.73;;
18449;SDS011;9354;50.194;7.690;2023-05-10T06:49:10;5.23;;;1.93;;
18449;SDS011;9354;50.194;7.690;2023-05-10T06:51:37;6.70;;;2.07;;
18449;SDS011;9354;50.194;7.690;2023-05-10T06:54:07;4.30;;;2.00;;
18449;SDS011;9354;50.194;7.690;2023-05-10T06:56:34;3.63;;;1.90;;
18449;SDS011;9354;50.194;7.690;2023-05-10T06:59:01;5.63;;;2.20;;
18449;SDS011;9354;50.194;7.690;2023-05-10T07:01:29;5.67;;;2.00;;
18449;SDS011;9354;50.194;7.690;2023-05-10T07:03:56;5.70;;;2.20;;
18449;SDS011;9354;50.194;7.690;2023-05-10T07:06:24;8.87;;;2.30;;
18449;SDS011;9354;50.194;7.690;2023-05-10T07:08:51;11.53;;;2.13;;
18449;SDS011;9354;50.194;7.690;2023-05-10T07:11:20;3.43;;;1.90;;
18449;SDS011;9354;50.194;7.690;2023-05-10T07:13:47;2.33;;;1.70;;
18449;SDS011;9354;50.194;7.690;2023-05-10T07:16:15;6.83;;;2.30;;
18449;SDS011;9354;50.194;7.690;2023-05-10T07:18:42;4.27;;;2.13;;
18449;SDS011;9354;50.194;7.690;2023-05-10T07:21:10;3.77;;;1.97;;
18449;SDS011;9354;50.194;7.690;2023-05-10T07:23:37;5.80;;;2.17;;
18449;SDS011;9354;50.194;7.690;2023-05-10T07:26:04;10.30;;;2.57;;
18449;SDS011;9354;50.194;7.690;2023-05-10T07:28:33;8.03;;;2.40;;
18449;SDS011;9354;50.194;7.690;2023-05-10T07:31:03;6.70;;;2.07;;
18449;SDS011;9354;50.194;7.690;2023-05-10T07:33:30;6.73;;;2.00;;
18449;SDS011;9354;50.194;7.690;2023-05-10T07:35:57;7.37;;;1.93;;
18449;SDS011;9354;50.194;7.690;2023-05-10T07:38:25;4.90;;;1.80;;
18449;SDS011;9354;50.194;7.690;2023-05-10T07:40:52;5.13;;;1.90;;
18449;SDS011;9354;50.194;7.690;2023-05-10T07:43:19;5.20;;;1.83;;
18449;SDS011;9354;50.194;7.690;2023-05-10T07:45:48;4.57;;;2.10;;
18449;SDS011;9354;50.194;7.690;2023-05-10T07:48:16;6.83;;;2.80;;
18449;SDS011;9354;50.194;7.690;2023-05-10T07:50:43;5.50;;;1.93;;
18449;SDS011;9354;50.194;7.690;2023-05-10T07:53:11;5.67;;;2.30;;
18449;SDS011;9354;50.194;7.690;2023-05-10T07:55:38;5.00;;;2.17;;
18449;SDS011;9354;50.194;7.690;2023-05-10T07:58:05;3.13;;;1.77;;
18449;SDS011;9354;50.194;7.690;2023-05-10T08:00:33;6.47;;;2.20;;
18449;SDS011;9354;50.194;7.690;2023-05-10T08:03:02;7.50;;;2.50;;
18449;SDS011;9354;50.194;7.690;2023-05-10T08:05:29;7.60;;;2.07;;
18449;SDS011;9354;50.194;7.690;2023-05-10T08:07:57;8.67;;;2.53;;
18449;SDS011;9354;50.194;7.690;2023-05-10T08:10:25;6.70;;;2.37;;
18449;SDS011;9354;50.194;7.690;2023-05-10T08:12:52;6.53;;;2.37;;
18449;SDS011;9354;50.194;7.690;2023-05-10T08:15:19;3.27;;;1.80;;
18449;SDS011;9354;50.194;7.690;2023-05-10T08:17:47;5.33;;;2.00;;
18449;SDS011;9354;50.194;7.690;2023-05-10T08:20:16;2.00;;;1.63;;
18449;SDS011;9354;50.194;7.690;2023-05-10T08:22:44;6.43;;;1.73;;
18449;SDS011;9354;50.194;7.690;2023-05-10T08:25:12;3.47;;;1.23;;
18449;SDS011;9354;50.194;7.690;2023-05-10T08:27:39;4.00;;;1.40;;
18449;SDS011;9354;50.194;7.690;2023-05-10T08:30:07;3.47;;;2.00;;
18449;SDS011;9354;50.194;7.690;2023-05-10T08:32:35;4.37;;;1.30;;
18449;SDS011;9354;50.194;7.690;2023-05-10T08:35:03;1.87;;;1.10;;
18449;SDS011;9354;50.194;7.690;2023-05-10T08:37:33;1.43;;;1.00;;
18449;SDS011;9354;50.194;7.690;2023-05-10T08:40:00;0.73;;;0.67;;
18449;SDS011;9354;50.194;7.690;2023-05-10T08:42:28;0.97;;;0.60;;
18449;SDS011;9354;50.194;7.690;2023-05-10T08:45:01;0.50;;;0.50;;
18449;SDS011;9354;50.194;7.690;2023-05-10T08:47:30;2.93;;;0.80;;
18449;SDS011;9354;50.194;7.690;2023-05-10T08:49:58;0.93;;;0.60;;
18449;SDS011;9354;50.194;7.690;2023-05-10T08:52:26;0.80;;;0.60;;
18449;SDS011;9354;50.194;7.690;2023-05-10T08:54:58;1.07;;;0.40;;
18449;SDS011;9354;50.194;7.690;2023-05-10T08:57:25;0.77;;;0.40;;
18449;SDS011;9354;50.194;7.690;2023-05-10T08:59:53;0.60;;;0.60;;
18449;SDS011;9354;50.194;7.690;2023-05-10T09:02:20;0.73;;;0.60;;
18449;SDS011;9354;50.194;7.690;2023-05-10T09:04:49;1.23;;;0.60;;
18449;SDS011;9354;50.194;7.690;2023-05-10T09:07:17;3.20;;;1.23;;
18449;SDS011;9354;50.194;7.690;2023-05-10T09:09:45;1.27;;;0.60;;
18449;SDS011;9354;50.194;7.690;2023-05-10T09:12:14;1.03;;;0.70;;
18449;SDS011;9354;50.194;7.690;2023-05-10T09:14:42;0.57;;;0.57;;
18449;SDS011;9354;50.194;7.690;2023-05-10T09:17:11;3.20;;;0.73;;
18449;SDS011;9354;50.194;7.690;2023-05-10T09:19:39;1.30;;;0.70;;
18449;SDS011;9354;50.194;7.690;2023-05-10T09:22:06;1.30;;;0.70;;
18449;SDS011;9354;50.194;7.690;2023-05-10T09:24:34;0.97;;;0.70;;
18449;SDS011;9354;50.194;7.690;2023-05-10T09:27:02;1.17;;;0.57;;
18449;SDS011;9354;50.194;7.690;2023-05-10T09:29:39;1.03;;;0.60;;
18449;SDS011;9354;50.194;7.690;2023-05-10T09:32:08;1.80;;;0.70;;
18449;SDS011;9354;50.194;7.690;2023-05-10T09:34:35;0.50;;;0.50;;
18449;SDS011;9354;50.194;7.690;2023-05-10T09:37:05;0.70;;;0.60;;
18449;SDS011;9354;50.194;7.690;2023-05-10T09:39:34;1.70;;;0.67;;
18449;SDS011;9354;50.194;7.690;2023-05-10T09:42:03;1.20;;;0.60;;
18449;SDS011;9354;50.194;7.690;2023-05-10T09:44:32;1.53;;;0.70;;
18449;SDS011;9354;50.194;7.690;2023-05-10T09:47:02;6.43;;;0.60;;
18449;SDS011;9354;50.194;7.690;2023-05-10T09:49:29;0.67;;;0.60;;
18449;SDS011;9354;50.194;7.690;2023-05-10T09:52:02;0.90;;;0.60;;
18449;SDS011;9354;50.194;7.690;2023-05-10T09:54:30;0.47;;;0.43;;
18449;SDS011;9354;50.194;7.690;2023-05-10T09:56:58;0.73;;;0.60;;
18449;SDS011;9354;50.194;7.690;2023-05-10T09:59:26;0.83;;;0.60;;
18449;SDS011;9354;50.194;7.690;2023-05-10T10:01:55;2.67;;;0.73;;
18449;SDS011;9354;50.194;7.690;2023-05-10T10:04:25;2.00;;;0.83;;
18449;SDS011;9354;50.194;7.690;2023-05-10T10:06:59;1.30;;;0.60;;
18449;SDS011;9354;50.194;7.690;2023-05-10T10:09:28;1.30;;;0.37;;
18449;SDS011;9354;50.194;7.690;2023-05-10T10:11:55;2.23;;;0.40;;
18449;SDS011;9354;50.194;7.690;2023-05-10T10:14:23;4.90;;;0.70;;
18449;SDS011;9354;50.194;7.690;2023-05-10T10:16:51;0.40;;;0.40;;
18449;SDS011;9354;50.194;7.690;2023-05-10T10:19:18;0.30;;;0.30;;
18449;SDS011;9354;50.194;7.690;2023-05-10T10:21:48;1.10;;;0.50;;
18449;SDS011;9354;50.194;7.690;2023-05-10T10:24:16;0.60;;;0.40;;
18449;SDS011;9354;50.194;7.690;2023-05-10T10:26:43;0.67;;;0.47;;
18449;SDS011;9354;50.194;7.690;2023-05-10T10:29:19;0.50;;;0.33;;
18449;SDS011;9354;50.194;7.690;2023-05-10T10:31:52;0.83;;;0.70;;
18449;SDS011;9354;50.194;7.690;2023-05-10T10:34:28;1.07;;;0.90;;
18449;SDS011;9354;50.194;7.690;2023-05-10T10:36:58;3.50;;;0.43;;
18449;SDS011;9354;50.194;7.690;2023-05-10T10:39:31;16.27;;;4.83;;
18449;SDS011;9354;50.194;7.690;2023-05-10T10:42:02;11.50;;;4.57;;
18449;SDS011;9354;50.194;7.690;2023-05-10T10:44:34;6.47;;;1.80;;
18449;SDS011;9354;50.194;7.690;2023-05-10T10:47:04;15.47;;;6.53;;
18449;SDS011;9354;50.194;7.690;2023-05-10T10:49:43;2.53;;;1.37;;
18449;SDS011;9354;50.194;7.690;2023-05-10T10:52:24;1.67;;;0.43;;
18449;SDS011;9354;50.194;7.690;2023-05-10T10:54:58;4.37;;;1.23;;
18449;SDS011;9354;50.194;7.690;2023-05-10T10:57:28;2.47;;;1.47;;
18449;SDS011;9354;50.194;7.690;2023-05-10T11:02:51;2.23;;;0.80;;
18449;SDS011;9354;50.194;7.690;2023-05-10T11:08:14;3.10;;;0.93;;
18449;SDS011;9354;50.194;7.690;2023-05-10T11:10:50;8.63;;;4.43;;
18449;SDS011;9354;50.194;7.690;2023-05-10T11:16:12;7.10;;;1.43;;
18449;SDS011;9354;50.194;7.690;2023-05-10T11:18:51;1.80;;;0.60;;
18449;SDS011;9354;50.194;7.690;2023-05-10T11:21:20;1.60;;;0.80;;
18449;SDS011;9354;50.194;7.690;2023-05-10T11:23:50;0.90;;;0.80;;
18449;SDS011;9354;50.194;7.690;2023-05-10T11:26:21;7.93;;;0.50;;
18449;SDS011;9354;50.194;7.690;2023-05-10T11:28:51;0.67;;;0.40;;
18449;SDS011;9354;50.194;7.690;2023-05-10T11:31:21;1.20;;;0.70;;
18449;SDS011;9354;50.194;7.690;2023-05-10T11:33:51;3.20;;;0.70;;
18449;SDS011;9354;50.194;7.690;2023-05-10T11:36:20;0.77;;;0.50;;
18449;SDS011;9354;50.194;7.690;2023-05-10T11:38:49;1.43;;;0.73;;
18449;SDS011;9354;50.194;7.690;2023-05-10T11:41:18;1.40;;;0.40;;
18449;SDS011;9354;50.194;7.690;2023-05-10T11:43:48;0.40;;;0.30;;
18449;SDS011;9354;50.194;7.690;2023-05-10T11:46:18;0.53;;;0.40;;
18449;SDS011;9354;50.194;7.690;2023-05-10T11:48:47;1.10;;;0.50;;
18449;SDS011;9354;50.194;7.690;2023-05-10T11:51:19;3.17;;;0.60;;
18449;SDS011;9354;50.194;7.690;2023-05-10T11:53:48;1.90;;;0.80;;
18449;SDS011;9354;50.194;7.690;2023-05-10T11:56:19;0.43;;;0.40;;
18449;SDS011;9354;50.194;7.690;2023-05-10T11:58:52;0.83;;;0.50;;
18449;SDS011;9354;50.194;7.690;2023-05-10T12:01:21;0.40;;;0.40;;
18449;SDS011;9354;50.194;7.690;2023-05-10T12:03:49;0.60;;;0.40;;
18449;SDS011;9354;50.194;7.690;2023-05-10T12:06:18;1.30;;;0.40;;
18449;SDS011;9354;50.194;7.690;2023-05-10T12:08:46;3.00;;;0.40;;
18449;SDS011;9354;50.194;7.690;2023-05-10T12:11:19;3.83;;;0.50;;
18449;SDS011;9354;50.194;7.690;2023-05-10T12:13:48;0.50;;;0.30;;
18449;SDS011;9354;50.194;7.690;2023-05-10T12:16:16;3.70;;;0.60;;
18449;SDS011;9354;50.194;7.690;2023-05-10T12:18:44;0.43;;;0.40;;
18449;SDS011;9354;50.194;7.690;2023-05-10T12:21:14;2.17;;;0.50;;
18449;SDS011;9354;50.194;7.690;2023-05-10T12:23:42;0.50;;;0.33;;
18449;SDS011;9354;50.194;7.690;2023-05-10T12:26:12;0.60;;;0.40;;
18449;SDS011;9354;50.194;7.690;2023-05-10T12:28:41;4.13;;;0.40;;
18449;SDS011;9354;50.194;7.690;2023-05-10T12:31:08;1.70;;;0.40;;
18449;SDS011;9354;50.194;7.690;2023-05-10T12:33:36;3.90;;;0.80;;
18449;SDS011;9354;50.194;7.690;2023-05-10T12:36:07;1.27;;;0.40;;
18449;SDS011;9354;50.194;7.690;2023-05-10T12:38:35;0.60;;;0.30;;
18449;SDS011;9354;50.194;7.690;2023-05-10T12:41:04;0.30;;;0.30;;
18449;SDS011;9354;50.194;7.690;2023-05-10T12:43:33;0.90;;;0.40;;
18449;SDS011;9354;50.194;7.690;2023-05-10T12:46:06;0.67;;;0.40;;
18449;SDS011;9354;50.194;7.690;2023-05-10T12:48:34;1.53;;;0.50;;
18449;SDS011;9354;50.194;7.690;2023-05-10T12:51:01;1.70;;;0.40;;
18449;SDS011;9354;50.194;7.690;2023-05-10T12:53:30;1.60;;;0.50;;
18449;SDS011;9354;50.194;7.690;2023-05-10T12:55:59;2.20;;;0.43;;
18449;SDS011;9354;50.194;7.690;2023-05-10T12:58:26;0.40;;;0.40;;
18449;SDS011;9354;50.194;7.690;2023-05-10T13:00:53;0.63;;;0.40;;
18449;SDS011;9354;50.194;7.690;2023-05-10T13:03:23;2.50;;;0.50;;
18449;SDS011;9354;50.194;7.690;2023-05-10T13:05:52;0.60;;;0.50;;
18449;SDS011;9354;50.194;7.690;2023-05-10T13:08:19;1.53;;;0.50;;
18449;SDS011;9354;50.194;7.690;2023-05-10T13:10:46;2.73;;;0.40;;
18449;SDS011;9354;50.194;7.690;2023-05-10T13:13:14;1.33;;;0.60;;
18449;SDS011;9354;50.194;7.690;2023-05-10T13:15:43;0.47;;;0.40;;
18449;SDS011;9354;50.194;7.690;2023-05-10T13:18:11;1.03;;;0.47;;
18449;SDS011;9354;50.194;7.690;2023-05-10T13:20:40;1.63;;;0.73;;
18449;SDS011;9354;50.194;7.690;2023-05-10T13:23:09;0.93;;;0.70;;
18449;SDS011;9354;50.194;7.690;2023-05-10T13:25:37;2.73;;;0.60;;
18449;SDS011;9354;50.194;7.690;2023-05-10T13:28:04;1.70;;;0.80;;
18449;SDS011;9354;50.194;7.690;2023-05-10T13:30:32;0.60;;;0.50;;
18449;SDS011;9354;50.194;7.690;2023-05-10T13:32:59;1.00;;;0.70;;
18449;SDS011;9354;50.194;7.690;2023-05-10T13:35:26;2.10;;;0.70;;
18449;SDS011;9354;50.194;7.690;2023-05-10T13:37:55;2.00;;;0.60;;
18449;SDS011;9354;50.194;7.690;2023-05-10T13:40:23;1.67;;;0.70;;
18449;SDS011;9354;50.194;7.690;2023-05-10T13:42:50;1.37;;;0.60;;
18449;SDS011;9354;50.194;7.690;2023-05-10T13:45:18;2.80;;;0.70;;
18449;SDS011;9354;50.194;7.690;2023-05-10T13:47:46;3.13;;;0.80;;
18449;SDS011;9354;50.194;7.690;2023-05-10T13:50:13;1.27;;;0.77;;
18449;SDS011;9354;50.194;7.690;2023-05-10T13:52:41;2.70;;;0.70;;
18449;SDS011;9354;50.194;7.690;2023-05-10T13:55:10;2.10;;;0.90;;
18449;SDS011;9354;50.194;7.690;2023-05-10T13:57:38;1.63;;;0.80;;
18449;SDS011;9354;50.194;7.690;2023-05-10T14:00:06;6.80;;;1.90;;
18449;SDS011;9354;50.194;7.690;2023-05-10T14:02:35;2.20;;;0.80;;
18449;SDS011;9354;50.194;7.690;2023-05-10T14:05:02;1.77;;;0.80;;
18449;SDS011;9354;50.194;7.690;2023-05-10T14:07:30;1.70;;;0.93;;
18449;SDS011;9354;50.194;7.690;2023-05-10T14:09:57;2.30;;;0.87;;
18449;SDS011;9354;50.194;7.690;2023-05-10T14:12:26;4.23;;;1.10;;
18449;SDS011;9354;50.194;7.690;2023-05-10T14:14:54;1.33;;;0.90;;
18449;SDS011;9354;50.194;7.690;2023-05-10T14:17:22;2.37;;;1.00;;
18449;SDS011;9354;50.194;7.690;2023-05-10T14:19:49;1.30;;;0.90;;
18449;SDS011;9354;50.194;7.690;2023-05-10T14:22:16;3.17;;;0.90;;
18449;SDS011;9354;50.194;7.690;2023-05-10T14:24:44;5.57;;;1.00;;
18449;SDS011;9354;50.194;7.690;2023-05-10T14:27:12;1.50;;;0.97;;
18449;SDS011;9354;50.194;7.690;2023-05-10T14:29:41;4.60;;;1.10;;
18449;SDS011;9354;50.194;7.690;2023-05-10T14:32:08;1.83;;;0.97;;
18449;SDS011;9354;50.194;7.690;2023-05-10T14:34:36;7.73;;;1.10;;
18449;SDS011;9354;50.194;7.690;2023-05-10T14:37:03;3.27;;;1.37;;
18449;SDS011;9354;50.194;7.690;2023-05-10T14:39:31;2.33;;;0.80;;
18449;SDS011;9354;50.194;7.690;2023-05-10T14:41:58;1.77;;;0.93;;
18449;SDS011;9354;50.194;7.690;2023-05-10T14:44:26;4.43;;;0.80;;
18449;SDS011;9354;50.194;7.690;2023-05-10T14:46:54;2.57;;;0.83;;
18449;SDS011;9354;50.194;7.690;2023-05-10T14:49:22;2.67;;;0.90;;
18449;SDS011;9354;50.194;7.690;2023-05-10T14:51:51;2.03;;;1.10;;
18449;SDS011;9354;50.194;7.690;2023-05-10T14:54:18;2.77;;;0.80;;
18449;SDS011;9354;50.194;7.690;2023-05-10T14:56:46;4.10;;;0.90;;
18449;SDS011;9354;50.194;7.690;2023-05-10T14:59:15;4.13;;;1.23;;
18449;SDS011;9354;50.194;7.690;2023-05-10T15:01:42;2.57;;;1.23;;
18449;SDS011;9354;50.194;7.690;2023-05-10T15:04:11;7.90;;;1.27;;
18449;SDS011;9354;50.194;7.690;2023-05-10T15:06:39;6.73;;;1.37;;
18449;SDS011;9354;50.194;7.690;2023-05-10T15:09:06;3.27;;;1.37;;
18449;SDS011;9354;50.194;7.690;2023-05-10T15:11:34;3.67;;;1.67;;
18449;SDS011;9354;50.194;7.690;2023-05-10T15:14:01;3.33;;;1.33;;
18449;SDS011;9354;50.194;7.690;2023-05-10T15:16:29;3.67;;;1.20;;
18449;SDS011;9354;50.194;7.690;2023-05-10T15:18:56;4.47;;;1.23;;
18449;SDS011;9354;50.194;7.690;2023-05-10T15:21:25;4.33;;;1.13;;